Time;durP1;ratioP1;P1;durP2;ratioP2;P2;SDS_P1;SDS_P2;PMS_P1;PMS_P2;Temp;Humidity;BMP_temperature;BMP_pressure;BME280_temperature;BME280_humidity;BME280_pressure;Samples;Min_cycle;Max_cycle;Signal;HPM_P1;HPM_P2
2022/04/11 00:00:38;;;;;;;11.93;4.73;;;;;;;4.26;95.28;100585.47;10464936;28;20227;-67
2022/04/11 00:05:44;;;;;;;11.33;5.00;;;;;;;4.19;95.40;100587.03;10464644;28;20220;-67
2022/04/11 00:10:47;;;;;;;10.47;5.50;;;;;;;4.07;95.96;100597.06;10463962;28;20235;-64
2022/04/11 00:15:59;;;;;;;11.67;4.57;;;;;;;4.19;94.98;100597.31;10464291;28;20220;-67
2022/04/11 00:21:04;;;;;;;9.50;5.00;;;;;;;4.14;94.98;100595.50;10464152;28;20280;-68
2022/04/11 00:26:07;;;;;;;8.10;3.70;;;;;;;4.17;95.15;100606.69;10463780;28;20247;-67
2022/04/11 00:31:10;;;;;;;11.53;5.07;;;;;;;4.13;96.61;100604.91;10463425;28;20552;-70
2022/04/11 00:36:15;;;;;;;12.40;5.07;;;;;;;4.18;97.31;100599.84;10463591;28;20231;-67
2022/04/11 00:41:19;;;;;;;11.53;4.50;;;;;;;4.21;97.02;100611.03;10463998;28;20244;-66
2022/04/11 00:46:22;;;;;;;13.30;5.07;;;;;;;4.23;97.22;100604.22;10463084;28;20225;-68
2022/04/11 00:51:27;;;;;;;12.67;4.80;;;;;;;4.10;98.12;100607.41;10462755;28;20236;-67
2022/04/11 00:56:30;;;;;;;11.60;5.40;;;;;;;4.17;98.16;100610.97;10462819;28;20212;-67
2022/04/11 01:01:34;;;;;;;11.63;5.27;;;;;;;4.07;99.67;100617.59;10462348;28;20685;-67
2022/04/11 01:06:39;;;;;;;9.63;4.90;;;;;;;4.06;100.00;100618.44;10462289;28;20668;-65
2022/04/11 01:11:42;;;;;;;12.77;5.37;;;;;;;3.99;100.00;100619.16;10461378;28;20528;-64
2022/04/11 01:16:49;;;;;;;12.00;5.50;;;;;;;4.01;100.00;100630.34;10462237;28;20543;-66
2022/04/11 01:21:53;;;;;;;12.63;5.60;;;;;;;3.84;100.00;100634.25;10461721;28;20240;-63
2022/04/11 01:26:56;;;;;;;12.73;6.20;;;;;;;3.88;100.00;100637.75;10461472;28;20217;-66
2022/04/11 01:32:00;;;;;;;13.57;6.23;;;;;;;3.88;100.00;100638.63;10461023;28;20232;-66
2022/04/11 01:37:05;;;;;;;14.93;6.27;;;;;;;3.89;100.00;100642.03;10460905;28;20228;-65
2022/04/11 01:42:09;;;;;;;12.97;5.90;;;;;;;3.86;100.00;100645.44;10460901;28;20219;-66
2022/04/11 01:47:12;;;;;;;14.00;5.83;;;;;;;3.81;100.00;100654.72;10460343;28;20595;-64
2022/04/11 01:52:17;;;;;;;12.93;6.23;;;;;;;3.86;100.00;100653.13;10460214;28;20308;-66
2022/04/11 01:57:20;;;;;;;12.73;6.77;;;;;;;3.82;100.00;100661.59;10458089;28;20525;-64
2022/04/11 02:02:25;;;;;;;10.07;6.17;;;;;;;3.92;100.00;100662.66;10456800;28;20217;-63
2022/04/11 02:07:30;;;;;;;15.23;6.30;;;;;;;3.94;100.00;100655.84;10456444;28;20563;-63
2022/04/11 02:12:33;;;;;;;16.77;6.63;;;;;;;3.70;100.00;100674.16;10456537;28;20521;-63
2022/04/11 02:17:36;;;;;;;16.17;6.87;;;;;;;3.79;100.00;100669.22;10067796;28;10000717;-65
2022/04/11 02:22:46;;;;;;;12.93;6.60;;;;;;;3.66;100.00;100674.06;10413914;28;20232;-64
2022/04/11 02:27:50;;;;;;;11.73;6.50;;;;;;;3.59;100.00;100678.16;10414810;28;20213;-66
2022/04/11 02:32:54;;;;;;;15.10;6.80;;;;;;;3.64;100.00;100670.59;10414530;28;20836;-66
2022/04/11 02:37:59;;;;;;;17.63;7.43;;;;;;;3.55;100.00;100678.94;10414492;28;20243;-66
2022/04/11 02:43:02;;;;;;;14.83;6.97;;;;;;;3.57;100.00;100684.09;10415367;28;20221;-66
2022/04/11 02:48:06;;;;;;;13.37;7.00;;;;;;;3.62;100.00;100674.81;10414584;28;20219;-67
2022/04/11 02:53:10;;;;;;;17.37;7.83;;;;;;;3.55;100.00;100671.25;10416396;28;20283;-64
2022/04/11 02:58:15;;;;;;;15.23;7.23;;;;;;;3.57;100.00;100676.41;10417488;28;20221;-66
2022/04/11 03:03:18;;;;;;;13.80;7.57;;;;;;;3.47;100.00;100680.44;10417208;28;20225;-66
2022/04/11 03:08:22;;;;;;;15.93;7.57;;;;;;;3.48;100.00;100685.66;10417271;28;20213;-65
2022/04/11 03:13:26;;;;;;;14.20;8.00;;;;;;;3.52;100.00;100691.69;10416736;28;20561;-66
2022/04/11 03:18:29;;;;;;;13.53;7.70;;;;;;;3.44;100.00;100695.78;10417247;28;20224;-66
2022/04/11 03:23:34;;;;;;;17.97;8.43;;;;;;;3.44;100.00;100694.09;10415233;28;20235;-65
2022/04/11 03:28:37;;;;;;;14.97;7.27;;;;;;;3.40;100.00;100693.97;10413599;28;20213;-65
2022/04/11 03:33:40;;;;;;;15.60;7.87;;;;;;;3.34;100.00;100704.97;10417160;28;20229;-66
2022/04/11 03:38:45;;;;;;;22.27;11.40;;;;;;;3.31;100.00;100704.03;10421415;28;20217;-64
2022/04/11 03:43:51;;;;;;;13.52;7.30;;;;;;;3.32;100.00;100701.50;10176240;28;10000910;-66
2022/04/11 03:48:54;;;;;;;15.73;7.93;;;;;;;3.29;100.00;100700.53;10462424;28;20885;-66
2022/04/11 03:53:59;;;;;;;17.57;8.07;;;;;;;3.21;100.00;100713.16;10461627;28;20224;-68
2022/04/11 03:59:02;;;;;;;16.30;8.43;;;;;;;3.15;100.00;100710.47;10461285;28;20221;-66
2022/04/11 04:04:06;;;;;;;20.20;9.20;;;;;;;3.09;100.00;100729.97;10461401;28;20530;-67
2022/04/11 04:09:11;;;;;;;15.40;8.80;;;;;;;3.10;100.00;100729.13;10460965;28;20200;-65
2022/04/11 04:14:14;;;;;;;17.57;8.77;;;;;;;2.88;100.00;100739.66;10460727;28;20319;-64
2022/04/11 04:19:17;;;;;;;16.10;8.33;;;;;;;2.84;100.00;100740.38;10461204;28;20193;-65
2022/04/11 04:24:24;;;;;;;18.63;9.17;;;;;;;2.86;100.00;100742.19;10460270;28;20216;-66
2022/04/11 04:29:27;;;;;;;18.40;8.63;;;;;;;2.82;100.00;100744.59;10460400;28;20202;-66
2022/04/11 04:34:31;;;;;;;18.50;8.93;;;;;;;3.00;100.00;100750.22;10460113;28;20579;-65
2022/04/11 04:39:36;;;;;;;15.90;8.23;;;;;;;2.98;100.00;100752.75;10459897;28;20188;-65
2022/04/11 04:44:40;;;;;;;16.90;8.93;;;;;;;3.00;100.00;100755.34;10459011;28;20331;-65
2022/04/11 04:49:44;;;;;;;22.17;9.83;;;;;;;2.98;100.00;100751.88;10459333;28;20632;-64
2022/04/11 04:54:49;;;;;;;18.73;8.37;;;;;;;3.01;100.00;100763.09;10459150;28;20231;-66
2022/04/11 04:59:52;;;;;;;16.73;9.37;;;;;;;3.08;100.00;100753.84;10459364;28;20193;-65
2022/04/11 05:04:56;;;;;;;19.00;8.83;;;;;;;3.14;100.00;100749.75;10458803;28;20207;-66
2022/04/11 05:10:02;;;;;;;18.23;9.23;;;;;;;3.20;100.00;100751.59;10458682;28;20189;-64
2022/04/11 05:15:05;;;;;;;15.93;7.90;;;;;;;3.36;100.00;100746.91;10458581;28;20229;-64
2022/04/11 05:20:09;;;;;;;13.20;7.23;;;;;;;3.38;100.00;100757.22;10458206;28;20271;-65
2022/04/11 05:25:14;;;;;;;15.73;7.43;;;;;;;3.49;100.00;100768.59;10458504;28;20204;-64
2022/04/11 05:30:18;;;;;;;17.30;8.60;;;;;;;3.53;100.00;100762.72;10460899;28;20617;-64
2022/04/11 05:35:21;;;;;;;14.73;7.87;;;;;;;3.44;100.00;100767.59;10460756;28;20220;-65
2022/04/11 05:40:26;;;;;;;17.00;8.53;;;;;;;3.50;100.00;100781.44;10460765;28;20540;-67
2022/04/11 05:45:29;;;;;;;16.13;8.80;;;;;;;3.62;100.00;100786.03;10460975;28;20226;-69
2022/04/11 05:50:32;;;;;;;15.53;8.97;;;;;;;3.85;100.00;100778.88;10460307;28;20196;-66
2022/04/11 05:55:37;;;;;;;20.63;9.87;;;;;;;4.21;100.00;100780.56;10459661;28;20217;-65
2022/04/11 06:00:40;;;;;;;18.83;8.63;;;;;;;4.13;100.00;100791.50;10459556;28;20293;-63
2022/04/11 06:05:44;;;;;;;16.03;9.17;;;;;;;4.16;100.00;100789.88;10459820;28;20227;-66
2022/04/11 06:10:48;;;;;;;17.53;10.63;;;;;;;4.21;100.00;100790.00;10459295;28;20225;-64
2022/04/11 06:15:52;;;;;;;20.27;11.73;;;;;;;4.40;100.00;100795.53;10459713;28;20224;-70
2022/04/11 06:20:55;;;;;;;20.37;12.13;;;;;;;4.35;100.00;100794.56;10459163;28;20217;-66
2022/04/11 06:26:00;;;;;;;21.03;11.13;;;;;;;4.94;100.00;100789.78;10459348;28;20594;-66
2022/04/11 06:31:04;;;;;;;19.83;11.53;;;;;;;5.10;100.00;100802.09;10456325;28;20609;-68
2022/04/11 06:36:08;;;;;;;29.07;12.77;;;;;;;5.04;100.00;100802.00;10458129;28;20219;-65
2022/04/11 06:41:13;;;;;;;23.50;11.97;;;;;;;5.06;100.00;100819.19;10457593;28;20231;-65
2022/04/11 06:46:16;;;;;;;21.57;12.63;;;;;;;4.91;100.00;100828.31;10455270;28;20208;-66
2022/04/11 06:51:19;;;;;;;22.67;13.23;;;;;;;4.82;100.00;100820.41;10105799;28;10000578;-65
2022/04/11 06:56:24;;;;;;;22.10;13.60;;;;;;;4.89;100.00;100818.00;10454231;28;20655;-66
2022/04/11 07:01:27;;;;;;;22.17;13.60;;;;;;;5.08;100.00;100821.78;10453980;28;20219;-65
2022/04/11 07:06:31;;;;;;;23.37;12.90;;;;;;;5.17;100.00;100827.09;10454626;28;20331;-66
2022/04/11 07:11:35;;;;;;;19.07;12.07;;;;;;;5.03;98.96;100834.56;10458998;28;20251;-65
2022/04/11 07:16:38;;;;;;;20.43;12.27;;;;;;;5.03;98.42;100839.72;10462318;28;20644;-67
2022/04/11 07:21:42;;;;;;;16.10;11.37;;;;;;;5.14;98.02;100842.50;10445190;28;20236;-66
2022/04/11 07:26:47;;;;;;;21.20;11.87;;;;;;;5.50;97.62;100832.88;10462226;28;20227;-67
2022/04/11 07:31:50;;;;;;;18.90;11.57;;;;;;;5.73;96.22;100839.28;10461126;28;20216;-64
2022/04/11 07:36:54;;;;;;;16.83;10.17;;;;;;;5.69;93.96;100840.94;10461763;28;20224;-69
2022/04/11 07:42:00;;;;;;;20.53;13.07;;;;;;;5.85;92.43;100836.94;10461152;28;20548;-65
2022/04/11 07:47:03;;;;;;;16.47;10.63;;;;;;;6.09;93.12;100839.91;10459374;28;20303;-64
2022/04/11 07:52:07;;;;;;;17.40;8.90;;;;;;;6.31;91.52;100843.69;10460882;28;20555;-64
2022/04/11 07:57:13;;;;;;;19.27;9.60;;;;;;;6.56;88.85;100846.63;10460763;28;20224;-64
2022/04/11 08:02:37;;;;;;;17.83;10.33;;;;;;;6.37;89.13;100847.22;10460310;28;20551;-65
2022/04/11 08:07:41;;;;;;;19.63;10.03;;;;;;;6.41;88.35;100840.38;10458005;28;20217;-64
2022/04/11 08:12:52;;;;;;;17.37;10.30;;;;;;;6.19;87.64;100838.34;10459792;28;20242;-65
2022/04/11 08:17:56;;;;;;;16.83;10.03;;;;;;;6.03;87.95;100837.25;10459596;28;20726;-65
2022/04/11 08:23:00;;;;;;;16.43;9.23;;;;;;;6.15;88.74;100842.59;10456584;28;20211;-65
2022/04/11 08:28:05;;;;;;;17.50;8.33;;;;;;;6.36;85.79;100852.34;10459771;28;20219;-65
2022/04/11 08:33:08;;;;;;;14.50;7.67;;;;;;;6.64;83.39;100844.16;10462147;28;20636;-64
2022/04/11 08:38:11;;;;;;;14.50;7.27;;;;;;;7.22;82.38;100835.41;10462444;28;20528;-64
2022/04/11 08:43:18;;;;;;;13.17;6.33;;;;;;;7.13;79.99;100838.75;10461843;28;20311;-65
2022/04/11 08:48:22;;;;;;;14.67;8.37;;;;;;;7.12;80.63;100844.78;10462350;28;20227;-67
2022/04/11 08:53:25;;;;;;;14.50;8.30;;;;;;;7.07;79.85;100854.19;10461223;28;20219;-65
2022/04/11 08:58:30;;;;;;;15.27;9.00;;;;;;;7.02;81.34;100845.50;10461488;28;20219;-65
2022/04/11 09:03:33;;;;;;;16.83;9.83;;;;;;;7.10;79.48;100851.63;10460649;28;20664;-66
2022/04/11 09:08:38;;;;;;;13.43;8.60;;;;;;;7.22;80.44;100850.88;10461037;28;20208;-65
2022/04/11 09:13:51;;;;;;;13.77;7.73;;;;;;;7.48;77.19;100852.91;10106896;28;10000616;-67
2022/04/11 09:18:56;;;;;;;13.93;8.33;;;;;;;7.32;75.40;100855.28;10457769;28;20229;-64
2022/04/11 09:24:14;;;;;;;14.90;7.80;;;;;;;7.37;76.32;100851.91;10457795;28;20311;-66
2022/04/11 09:29:19;;;;;;;13.25;6.50;;;;;;;8.28;72.64;100838.13;10458169;28;20425;-61
2022/04/11 09:34:25;;;;;;;13.77;5.30;;;;;;;8.29;68.75;100844.16;10463344;28;20232;-67
2022/04/11 09:39:31;;;;;;;7.40;3.93;;;;;;;8.49;67.90;100845.16;10457488;28;20727;-66
2022/04/11 09:44:38;;;;;;;12.43;5.13;;;;;;;9.18;64.96;100837.72;10457504;28;20552;-63
2022/04/11 09:50:02;;;;;;;9.37;4.50;;;;;;;10.57;60.02;100825.69;10460143;28;20225;-64
2022/04/11 09:55:06;;;;;;;11.13;4.13;;;;;;;11.11;59.24;100820.25;10459588;28;20235;-65
2022/04/11 10:00:12;;;;;;;12.10;4.60;;;;;;;11.86;55.95;100818.06;10460034;28;20215;-65
2022/04/11 10:05:17;;;;;;;9.57;3.87;;;;;;;12.19;54.61;100815.19;10457655;28;20216;-64
2022/04/11 10:10:21;;;;;;;8.00;3.07;;;;;;;13.00;52.66;100803.00;10456374;28;20209;-64
2022/04/11 10:15:26;;;;;;;7.87;3.03;;;;;;;13.38;51.35;100819.88;10455987;28;20236;-65
2022/04/11 10:20:36;;;;;;;10.30;3.20;;;;;;;13.52;50.47;100809.25;10456029;28;20212;-63
2022/04/11 10:25:46;;;;;;;9.13;3.03;;;;;;;13.71;49.38;100811.56;10455829;28;20228;-66
2022/04/11 10:31:09;;;;;;;7.97;2.90;;;;;;;14.30;48.69;100810.59;10455783;28;20266;-65
2022/04/11 10:36:34;;;;;;;7.80;3.20;;;;;;;14.43;47.00;100801.63;10440001;28;20227;-64
2022/04/11 10:42:16;;;;;;;6.73;2.73;;;;;;;14.50;45.61;100805.84;10454941;28;20797;-65
2022/04/11 10:47:48;;;;;;;6.47;2.70;;;;;;;14.97;43.97;100797.06;10455062;28;20216;-65
2022/04/11 10:52:54;;;;;;;9.73;2.70;;;;;;;15.93;46.02;100783.53;10455322;28;20246;-65
2022/04/11 10:58:00;;;;;;;7.00;2.80;;;;;;;14.78;44.42;100790.50;10455154;28;20567;-65
2022/04/11 11:03:13;;;;;;;8.03;2.93;;;;;;;12.89;48.21;100804.88;10455628;28;20217;-66
2022/04/11 11:08:27;;;;;;;10.63;5.77;;;;;;;11.51;54.82;100832.16;10455058;28;20221;-66
2022/04/11 11:13:39;;;;;;;7.30;3.17;;;;;;;10.45;61.82;100844.75;10457904;28;20297;-65
2022/04/11 11:19:12;;;;;;;5.93;2.27;;;;;;;9.44;68.52;100850.75;10457046;28;20232;-63
2022/04/11 11:24:17;;;;;;;6.63;2.87;;;;;;;8.89;77.03;100854.84;10457298;28;20567;-63
2022/04/11 11:29:22;;;;;;;6.73;3.67;;;;;;;8.23;83.21;100855.31;10107062;28;10000448;-66
2022/04/11 11:34:28;;;;;;;6.20;2.77;;;;;;;8.10;89.80;100864.69;10453925;28;20217;-64
2022/04/11 11:39:33;;;;;;;11.40;3.20;;;;;;;8.12;91.14;100857.81;10454966;28;20755;-63
2022/04/11 11:44:43;;;;;;;9.10;4.20;;;;;;;8.14;90.74;100850.06;10454129;28;20691;-65
2022/04/11 11:49:49;;;;;;;6.10;1.70;;;;;;;8.05;80.79;100842.22;10453836;28;20208;-65
2022/04/11 11:54:53;;;;;;;5.33;2.00;;;;;;;7.95;73.70;100846.47;10457217;28;20229;-64
2022/04/11 11:59:59;;;;;;;3.23;1.37;;;;;;;8.31;69.75;100837.28;10461523;28;20235;-67
2022/04/11 12:05:15;;;;;;;4.53;1.30;;;;;;;8.42;67.90;100828.72;10460762;28;20224;-64
2022/04/11 12:10:19;;;;;;;4.80;1.37;;;;;;;8.95;66.22;100819.53;10460869;28;20341;-65
2022/04/11 12:15:23;;;;;;;4.73;1.30;;;;;;;10.07;64.89;100814.50;10460712;28;20232;-66
2022/04/11 12:20:30;;;;;;;4.60;2.10;;;;;;;12.53;59.74;100795.75;10460278;28;20703;-65
2022/04/11 12:25:35;;;;;;;5.63;2.17;;;;;;;13.05;54.91;100799.47;10460317;28;20224;-65
2022/04/11 12:30:41;;;;;;;6.37;2.53;;;;;;;13.78;53.77;100791.47;10460041;28;20212;-64
2022/04/11 12:36:05;;;;;;;7.43;3.73;;;;;;;13.76;50.92;100781.06;10459688;28;20817;-66
2022/04/11 12:41:35;;;;;;;7.40;2.33;;;;;;;12.85;50.07;100777.16;10460000;28;20220;-66
2022/04/11 12:46:41;;;;;;;6.53;2.40;;;;;;;13.20;52.59;100775.81;10459269;28;20232;-64
2022/04/11 12:51:58;;;;;;;6.17;1.80;;;;;;;14.51;46.06;100764.94;10459327;28;20223;-65
2022/04/11 12:57:02;;;;;;;6.27;1.60;;;;;;;13.58;46.87;100772.66;10459095;28;20659;-66
2022/04/11 13:02:07;;;;;;;5.90;2.13;;;;;;;16.11;42.00;100765.59;10458761;28;20234;-67
2022/04/11 13:07:12;;;;;;;6.60;1.90;;;;;;;14.99;41.87;100764.81;10458025;28;20225;-61
2022/04/11 13:12:17;;;;;;;6.60;1.80;;;;;;;12.37;43.72;100762.97;10459171;28;20286;-61
2022/04/11 13:23:14;;;;;;;7.70;2.33;;;;;;;11.66;46.55;100765.38;10332023;28;20227;-61
2022/04/11 13:28:17;;;;;;;8.60;2.57;;;;;;;11.41;48.54;100765.53;10434820;28;20648;-65
2022/04/11 13:33:20;;;;;;;6.23;2.40;;;;;;;11.52;48.83;100781.06;10457719;28;20213;-63
2022/04/11 13:38:25;;;;;;;6.00;2.27;;;;;;;11.43;49.64;100779.38;10457235;28;20221;-64
2022/04/11 13:43:28;;;;;;;7.10;2.37;;;;;;;11.42;50.17;100780.22;10460466;28;20235;-65
2022/04/11 13:48:31;;;;;;;10.87;2.60;;;;;;;10.73;50.58;100785.84;10460131;28;20227;-66
2022/04/11 13:53:36;;;;;;;5.37;2.13;;;;;;;10.49;51.06;100786.75;10460491;28;20216;-64
2022/04/11 13:58:40;;;;;;;7.00;2.77;;;;;;;10.24;51.83;100781.66;10459839;28;20221;-68
2022/04/11 14:03:43;;;;;;;5.60;2.40;;;;;;;9.98;53.12;100788.56;10460716;28;20236;-65
2022/04/11 14:08:48;;;;;;;6.83;2.90;;;;;;;9.57;54.29;100772.16;10459267;28;20212;-60
2022/04/11 14:13:51;;;;;;;8.20;2.77;;;;;;;9.54;54.80;100779.94;10458522;28;20640;-62
2022/04/11 14:18:55;;;;;;;6.00;2.40;;;;;;;9.94;54.75;100782.50;10457874;28;20537;-60
2022/04/11 14:24:00;;;;;;;5.33;2.40;;;;;;;10.42;52.29;100779.84;10458291;28;20220;-61
2022/04/11 14:29:04;;;;;;;9.30;2.03;;;;;;;10.25;50.09;100783.38;10453809;28;20224;-61
2022/04/11 14:34:07;;;;;;;7.73;2.27;;;;;;;9.72;50.36;100775.63;10452157;28;20298;-62
2022/04/11 14:39:12;;;;;;;6.53;1.80;;;;;;;9.75;50.52;100778.19;10454148;28;20738;-61
2022/04/11 14:44:16;;;;;;;5.07;1.93;;;;;;;9.55;50.89;100772.16;10452297;28;20660;-65
2022/04/11 14:49:19;;;;;;;7.10;1.80;;;;;;;9.64;51.23;100776.47;10454175;28;20250;-67
2022/04/11 14:54:44;;;;;;;7.70;2.20;;;;;;;9.44;52.78;100776.44;10453008;28;20243;-64
2022/04/11 14:59:48;;;;;;;6.57;2.00;;;;;;;9.45;53.95;100780.78;10454011;28;20221;-66
2022/04/11 15:04:51;;;;;;;6.13;2.33;;;;;;;9.82;53.40;100787.69;10454074;28;20216;-64
2022/04/11 15:09:56;;;;;;;7.20;2.40;;;;;;;9.69;56.10;100790.28;10454235;28;20244;-67
2022/04/11 15:14:59;;;;;;;8.73;2.70;;;;;;;9.64;57.05;100789.44;10454191;28;20730;-67
2022/04/11 15:20:03;;;;;;;6.20;2.80;;;;;;;9.42;57.37;100775.63;10451127;28;20225;-67
2022/04/11 15:25:09;;;;;;;8.80;3.67;;;;;;;9.50;57.32;100770.41;10455517;28;20209;-65
2022/04/11 15:30:13;;;;;;;8.47;3.67;;;;;;;9.59;58.86;100780.78;10458180;28;20227;-66
2022/04/11 15:35:17;;;;;;;10.17;3.60;;;;;;;9.75;58.51;100788.56;10461579;28;20692;-68
2022/04/11 15:40:22;;;;;;;6.77;3.10;;;;;;;9.48;59.33;100777.31;10468998;28;20224;-68
2022/04/11 15:45:28;;;;;;;6.60;3.20;;;;;;;9.36;60.24;100778.19;10461508;28;20219;-64
2022/04/11 15:50:32;;;;;;;7.57;3.00;;;;;;;9.37;60.87;100779.06;10462165;28;20227;-66
2022/04/11 15:55:56;;;;;;;8.17;3.20;;;;;;;9.09;61.54;100776.38;10464276;28;20229;-67
2022/04/11 16:01:00;;;;;;;9.97;3.40;;;;;;;9.09;61.41;100778.97;10464104;28;20674;-66
2022/04/11 16:06:10;;;;;;;7.80;3.70;;;;;;;9.14;62.33;100772.13;10440664;28;20617;-68
2022/04/11 16:11:15;;;;;;;8.67;2.77;;;;;;;9.18;60.84;100767.81;10463932;28;20648;-65
2022/04/11 16:16:19;;;;;;;4.67;2.50;;;;;;;9.02;56.81;100774.66;10463870;28;20228;-67
2022/04/11 16:21:22;;;;;;;8.50;2.57;;;;;;;9.00;56.56;100770.34;10463882;28;20540;-66
2022/04/11 16:26:27;;;;;;;5.70;2.40;;;;;;;8.92;57.14;100772.03;10463464;28;20217;-68
2022/04/11 16:31:30;;;;;;;4.77;2.20;;;;;;;8.91;57.41;100775.47;10463469;28;20308;-65
2022/04/11 16:36:34;;;;;;;4.87;2.50;;;;;;;8.87;58.32;100784.13;10463213;28;20230;-66
2022/04/11 16:41:38;;;;;;;6.63;2.77;;;;;;;8.79;58.33;100791.84;10461369;28;20552;-67
2022/04/11 16:46:42;;;;;;;6.80;2.50;;;;;;;8.78;61.20;100789.25;10462490;28;20717;-64
2022/04/11 16:51:45;;;;;;;7.03;2.87;;;;;;;8.63;62.75;100796.94;10462646;28;20220;-65
2022/04/11 16:56:50;;;;;;;6.40;3.33;;;;;;;8.61;64.06;100794.31;10462272;28;20659;-67
2022/04/11 17:01:53;;;;;;;8.40;2.80;;;;;;;8.54;62.26;100796.91;10463159;28;20226;-68
2022/04/11 17:06:57;;;;;;;10.87;5.60;;;;;;;8.50;64.15;100808.94;10462074;28;20228;-68
2022/04/11 17:12:01;;;;;;;6.37;3.77;;;;;;;8.35;65.65;100802.81;10461745;28;20316;-65
2022/04/11 17:22:26;;;;;;;7.13;3.17;;;;;;;8.30;67.62;100801.94;10461326;28;20663;-70
2022/04/11 17:27:32;;;;;;;5.93;3.00;;;;;;;8.17;68.03;100809.59;10461443;28;20217;-69
2022/04/11 17:32:35;;;;;;;6.70;2.73;;;;;;;7.96;68.53;100806.84;10461231;28;20217;-66
2022/04/11 17:37:39;;;;;;;6.30;3.07;;;;;;;7.89;70.48;100817.09;10460881;28;20216;-68
2022/04/11 17:42:44;;;;;;;5.80;3.33;;;;;;;7.79;72.55;100828.22;10460871;28;20216;-66
2022/04/11 17:47:47;;;;;;;9.93;3.60;;;;;;;7.71;70.86;100845.38;10460709;28;20223;-66
2022/04/11 17:52:51;;;;;;;9.40;3.90;;;;;;;7.72;68.74;100840.22;10460198;28;20209;-67
2022/04/11 17:57:56;;;;;;;6.97;2.70;;;;;;;7.69;69.21;100845.38;10460250;28;20235;-68
2022/04/11 18:02:59;;;;;;;9.37;3.23;;;;;;;7.67;70.08;100857.41;10460039;28;20207;-64
2022/04/11 18:08:02;;;;;;;8.33;3.27;;;;;;;7.59;68.60;100860.78;10459946;28;20199;-67
2022/04/11 18:13:07;;;;;;;7.97;3.60;;;;;;;7.58;69.88;100869.34;10459314;28;20228;-65
2022/04/11 18:18:11;;;;;;;8.03;3.37;;;;;;;7.54;71.65;100860.69;10459784;28;20265;-67
2022/04/11 18:23:14;;;;;;;9.03;4.03;;;;;;;7.46;71.45;100861.47;10459696;28;20203;-65
2022/04/11 18:33:39;;;;;;;9.80;4.77;;;;;;;7.34;72.10;100879.41;10458948;28;20188;-66
2022/04/11 18:38:55;;;;;;;11.77;5.53;;;;;;;7.31;73.17;100885.44;10458535;28;20242;-65
2022/04/11 18:44:05;;;;;;;9.20;5.53;;;;;;;7.27;74.12;100890.53;10458548;28;20731;-64
2022/04/11 18:49:08;;;;;;;10.80;5.23;;;;;;;7.19;75.41;100898.19;10458966;28;20628;-69
2022/04/11 18:54:12;;;;;;;8.80;4.23;;;;;;;7.13;76.13;100902.41;10458776;28;20220;-66
2022/04/11 18:59:16;;;;;;;11.73;4.13;;;;;;;7.04;76.54;100904.03;10457920;28;20228;-66
2022/04/11 19:04:20;;;;;;;7.27;3.93;;;;;;;7.17;77.22;100904.16;10458477;28;20177;-65
2022/04/11 19:09:23;;;;;;;10.40;4.17;;;;;;;7.11;77.26;100904.97;10463542;28;20577;-65
2022/04/11 19:14:28;;;;;;;8.27;4.10;;;;;;;6.98;77.56;100900.50;10463343;28;20217;-65
2022/04/11 19:19:31;;;;;;;7.83;3.83;;;;;;;7.18;76.93;100904.19;10463059;28;20216;-66
2022/04/11 19:24:34;;;;;;;10.13;4.90;;;;;;;7.13;78.36;100907.59;10114039;28;10000087;-65
2022/04/11 19:29:40;;;;;;;7.37;3.93;;;;;;;7.07;78.42;100901.47;10462814;28;20220;-67
2022/04/11 19:34:44;;;;;;;9.10;4.47;;;;;;;7.03;78.85;100907.47;10461613;28;20632;-64
2022/04/11 19:39:47;;;;;;;8.30;3.97;;;;;;;7.00;79.35;100904.84;10461780;28;20204;-67
2022/04/11 19:44:51;;;;;;;8.80;3.87;;;;;;;6.92;80.69;100898.69;10461363;28;20213;-66
2022/04/11 19:49:56;;;;;;;10.37;4.20;;;;;;;7.03;81.71;100901.41;10459074;28;20762;-66
2022/04/11 19:54:59;;;;;;;7.30;3.60;;;;;;;7.09;81.39;100906.69;10460878;28;20213;-65
2022/04/11 20:00:05;;;;;;;8.33;4.50;;;;;;;7.13;83.16;100902.41;10458359;28;20209;-66
2022/04/11 20:05:10;;;;;;;7.37;4.40;;;;;;;7.07;82.19;100899.75;10443039;28;20213;-66
2022/04/11 20:10:14;;;;;;;9.27;4.17;;;;;;;7.04;83.59;100908.31;10460465;28;20528;-64
2022/04/11 20:15:20;;;;;;;18.50;9.50;;;;;;;7.00;83.91;100912.59;10460338;28;20696;-65
2022/04/11 20:20:24;;;;;;;8.03;4.50;;;;;;;6.95;82.90;100914.22;10457642;28;20216;-61
2022/04/11 20:25:27;;;;;;;13.63;5.93;;;;;;;6.84;82.78;100915.81;10457282;28;20213;-64
2022/04/11 20:30:32;;;;;;;9.83;5.30;;;;;;;6.76;82.62;100922.59;10459788;28;20219;-63
2022/04/11 20:35:35;;;;;;;11.63;5.80;;;;;;;6.81;82.60;100922.63;10459451;28;20215;-62
2022/04/11 20:40:40;;;;;;;10.43;5.73;;;;;;;6.77;83.32;100923.41;10459179;28;20212;-62
2022/04/11 20:45:44;;;;;;;10.43;5.13;;;;;;;6.94;83.81;100927.97;10459237;28;20231;-64
2022/04/11 20:50:48;;;;;;;10.27;5.30;;;;;;;6.80;83.41;100921.75;10456411;28;20668;-66
2022/04/11 20:55:51;;;;;;;10.97;5.30;;;;;;;6.83;84.01;100919.22;10458763;28;20223;-65
2022/04/11 21:00:56;;;;;;;11.93;5.77;;;;;;;6.77;84.63;100919.13;10459782;28;20239;-66
2022/04/11 21:06:00;;;;;;;9.97;5.43;;;;;;;6.77;85.41;100921.72;10458946;28;20212;-66
2022/04/11 21:11:03;;;;;;;11.07;5.83;;;;;;;6.76;86.51;100909.69;10458776;28;20573;-64
2022/04/11 21:16:09;;;;;;;12.00;6.10;;;;;;;6.75;87.48;100914.78;10458590;28;20361;-65
2022/04/11 21:21:18;;;;;;;10.30;5.40;;;;;;;6.73;87.83;100906.19;10458434;28;20228;-65
2022/04/11 21:26:21;;;;;;;15.83;5.80;;;;;;;6.69;89.17;100904.41;10457618;28;20223;-64
2022/04/11 21:31:26;;;;;;;18.07;8.13;;;;;;;6.59;89.89;100907.69;10458009;28;20227;-62
2022/04/11 21:36:29;;;;;;;13.87;6.60;;;;;;;6.57;91.48;100917.13;10457991;28;20278;-63
2022/04/11 21:41:33;;;;;;;16.83;7.20;;;;;;;6.39;91.51;100930.59;10457744;28;20234;-63
2022/04/11 21:46:37;;;;;;;14.57;6.97;;;;;;;6.49;93.78;100927.31;10457394;28;20300;-64
2022/04/11 21:51:41;;;;;;;13.83;7.13;;;;;;;6.59;92.14;100928.34;10457438;28;20243;-66
2022/04/11 21:56:44;;;;;;;17.50;7.53;;;;;;;6.59;91.52;100934.34;10457099;28;20559;-66
2022/04/11 22:01:49;;;;;;;15.50;7.20;;;;;;;6.45;91.79;100945.28;10456806;28;20226;-62
2022/04/11 22:06:52;;;;;;;14.53;7.57;;;;;;;6.45;92.93;100937.56;10457046;28;20216;-62
2022/04/11 22:11:56;;;;;;;16.50;8.20;;;;;;;6.43;93.06;100929.81;10456406;28;20236;-61
2022/04/11 22:17:00;;;;;;;13.67;7.83;;;;;;;6.57;92.86;100935.16;10456732;28;20231;-61
2022/04/11 22:22:04;;;;;;;14.33;7.83;;;;;;;6.61;93.54;100927.50;10456353;28;20232;-63
2022/04/11 22:27:07;;;;;;;13.33;7.80;;;;;;;6.52;93.28;100929.09;10455970;28;20227;-62
2022/04/11 22:32:12;;;;;;;16.33;7.70;;;;;;;6.35;93.58;100936.53;10456298;28;20299;-63
2022/04/11 22:37:15;;;;;;;13.83;7.63;;;;;;;6.37;94.34;100932.28;10455301;28;20239;-63
2022/04/11 22:42:19;;;;;;;12.10;6.93;;;;;;;6.43;95.97;100922.06;10455800;28;20236;-62
2022/04/11 22:47:23;;;;;;;14.50;8.03;;;;;;;6.44;96.94;100923.78;10455902;28;20256;-63
2022/04/11 22:52:27;;;;;;;15.93;9.07;;;;;;;6.44;99.03;100931.53;10452883;28;20448;-63
2022/04/11 22:57:30;;;;;;;14.73;8.10;;;;;;;6.43;97.25;100936.66;10455362;28;20506;-62
2022/04/11 23:02:35;;;;;;;13.80;8.43;;;;;;;6.47;98.65;100925.56;10457048;28;20225;-62
2022/04/11 23:07:38;;;;;;;12.80;7.43;;;;;;;6.49;96.64;100923.88;10455228;28;20196;-63
2022/04/11 23:12:53;;;;;;;16.87;8.07;;;;;;;6.51;96.51;100925.63;10455104;28;20680;-66
2022/04/11 23:17:58;;;;;;;16.77;9.17;;;;;;;6.53;98.00;100929.09;10454897;28;20207;-71
2022/04/11 23:23:01;;;;;;;14.70;7.83;;;;;;;6.42;95.30;100924.63;10455168;28;20207;-65
2022/04/11 23:28:06;;;;;;;12.50;6.37;;;;;;;6.45;95.30;100928.13;10454173;28;20196;-66
2022/04/11 23:33:12;;;;;;;10.17;6.30;;;;;;;6.41;94.55;100923.75;10454594;28;20204;-66
2022/04/11 23:38:15;;;;;;;12.03;5.97;;;;;;;6.39;95.94;100940.91;10454408;28;20189;-67